createdAt,value
2022-09-15T00:01:38.775Z,97218.00
2022-09-15T00:04:07.507Z,97220.63
2022-09-15T00:06:36.817Z,97225.84
2022-09-15T00:09:05.948Z,97212.94
2022-09-15T00:11:37.975Z,97214.88
2022-09-15T00:14:08.818Z,97217.63
2022-09-15T00:16:37.823Z,97212.88
2022-09-15T00:19:07.357Z,97207.81
2022-09-15T00:21:39.382Z,97212.06
2022-09-15T00:24:08.146Z,97201.63
2022-09-15T00:26:37.733Z,97204.22
2022-09-15T00:29:06.287Z,97211.25
2022-09-15T00:31:34.557Z,97207.00
2022-09-15T00:34:04.113Z,97206.03
2022-09-15T00:36:32.909Z,97204.22
2022-09-15T00:39:01.403Z,97209.16
2022-09-15T00:41:30.328Z,97199.00
2022-09-15T00:44:03.148Z,97198.88
2022-09-15T00:46:34.389Z,97201.31
2022-09-15T00:49:07.357Z,97202.94
2022-09-15T00:51:40.837Z,97206.84
2022-09-15T00:54:13.496Z,97200.28
2022-09-15T00:56:44.128Z,97196.03
2022-09-15T00:59:21.674Z,97200.59
2022-09-15T01:01:57.046Z,97206.16
2022-09-15T01:06:59.856Z,97213.31
2022-09-15T01:09:32.528Z,97195.84
2022-09-15T01:12:01.137Z,97201.22
2022-09-15T01:14:30.842Z,97200.56
2022-09-15T01:17:06.931Z,97193.41
2022-09-15T01:20:20.987Z,97184.22
2022-09-15T01:23:15.484Z,97193.41
2022-09-15T01:26:14.407Z,97192.38
2022-09-15T01:29:21.726Z,97185.50
2022-09-15T01:32:15.880Z,97183.84
2022-09-15T01:34:51.102Z,97181.88
2022-09-15T01:37:27.721Z,97176.47
2022-09-15T01:39:57.626Z,97180.88
2022-09-15T01:42:26.767Z,97162.09
2022-09-15T01:44:59.981Z,97163.44
2022-09-15T01:47:31.210Z,97165.53
2022-09-15T01:50:04.822Z,97154.06
2022-09-15T01:52:34.274Z,97154.38
2022-09-15T01:55:13.381Z,97166.16
2022-09-15T01:57:41.759Z,97159.59
2022-09-15T02:00:13.728Z,97161.53
2022-09-15T02:02:48.796Z,97167.56
2022-09-15T02:05:25.799Z,97165.47
2022-09-15T02:08:05.036Z,97165.13
2022-09-15T02:10:41.078Z,97171.34
2022-09-15T02:13:17.032Z,97165.13
2022-09-15T02:15:51.572Z,97168.03
2022-09-15T02:18:34.678Z,97167.75
2022-09-15T02:21:12.612Z,97174.22
2022-09-15T02:23:47.557Z,97175.06
2022-09-15T02:26:22.711Z,97174.75
2022-09-15T02:28:53.510Z,97177.88
2022-09-15T02:31:26.195Z,97177.88
2022-09-15T02:34:00.719Z,97173.63
2022-09-15T02:36:30.499Z,97171.97
2022-09-15T02:39:03.729Z,97177.19
2022-09-15T02:41:32.601Z,97172.44
2022-09-15T02:44:00.851Z,97161.16
2022-09-15T02:46:31.046Z,97164.16
2022-09-15T02:48:59.244Z,97163.78
2022-09-15T02:51:27.565Z,97149.22
2022-09-15T02:53:55.844Z,97150.03
2022-09-15T02:56:24.053Z,97152.38
2022-09-15T02:58:52.378Z,97152.38
2022-09-15T03:01:20.826Z,97149.47
2022-09-15T03:03:50.540Z,97152.38
2022-09-15T03:06:20.985Z,97151.00
2022-09-15T03:08:51.823Z,97153.63
2022-09-15T03:11:22.632Z,97154.16
2022-09-15T03:13:55.680Z,97145.97
2022-09-15T03:16:25.095Z,97146.78
2022-09-15T03:18:55.974Z,97152.28
2022-09-15T03:21:24.608Z,97143.78
2022-09-15T03:23:52.798Z,97152.00
2022-09-15T03:26:20.970Z,97141.56
2022-09-15T03:28:50.111Z,97149.69
2022-09-15T03:31:19.806Z,97144.47
2022-09-15T03:33:49.134Z,97146.41
2022-09-15T03:36:18.773Z,97149.97
2022-09-15T03:38:46.984Z,97151.47
2022-09-15T03:41:15.245Z,97149.00
2022-09-15T03:43:43.508Z,97147.66
2022-09-15T03:46:13.201Z,97156.31
2022-09-15T03:48:41.586Z,97158.44
2022-09-15T03:51:11.553Z,97154.03
2022-09-15T03:53:42.755Z,97157.94
2022-09-15T03:56:14.915Z,97156.13
2022-09-15T03:58:43.358Z,97151.03
2022-09-15T04:01:12.595Z,97156.44
2022-09-15T04:03:46.343Z,97153.53
2022-09-15T04:06:16.059Z,97151.84
2022-09-15T04:08:45.787Z,97146.97
2022-09-15T04:11:14.929Z,97158.75
2022-09-15T04:13:44.055Z,97155.59
2022-09-15T04:16:15.696Z,97150.69
2022-09-15T04:18:44.564Z,97150.16
2022-09-15T04:21:16.003Z,97157.69
2022-09-15T04:23:46.320Z,97153.13
2022-09-15T04:26:21.250Z,97150.03
2022-09-15T04:28:49.457Z,97149.53
2022-09-15T04:31:19.159Z,97153.75
2022-09-15T04:33:48.696Z,97153.06
2022-09-15T04:36:21.041Z,97153.88
2022-09-15T04:38:51.710Z,97141.00
2022-09-15T04:41:20.970Z,97156.00
2022-09-15T04:43:49.336Z,97139.09
2022-09-15T04:46:18.772Z,97151.16
2022-09-15T04:48:48.850Z,97143.78
2022-09-15T04:51:21.111Z,97153.06
2022-09-15T04:53:51.535Z,97143.78
2022-09-15T04:56:22.335Z,97153.75
2022-09-15T04:58:53.822Z,97159.44
2022-09-15T05:01:25.132Z,97161.88
2022-09-15T05:03:54.596Z,97163.38
2022-09-15T05:06:25.432Z,97167.78
2022-09-15T05:08:56.867Z,97175.91
2022-09-15T05:11:27.183Z,97177.84
2022-09-15T05:13:55.996Z,97170.41
2022-09-15T05:16:27.607Z,97179.56
2022-09-15T05:18:58.224Z,97181.78
2022-09-15T05:21:27.595Z,97175.69
2022-09-15T05:23:57.528Z,97177.53
2022-09-15T05:26:29.068Z,97172.47
2022-09-15T05:28:57.844Z,97188.28
2022-09-15T05:31:28.999Z,97180.31
2022-09-15T05:33:57.911Z,97185.97
2022-09-15T05:36:26.527Z,97181.72
2022-09-15T05:38:57.527Z,97181.66
2022-09-15T05:41:27.400Z,97175.44
2022-09-15T05:43:57.989Z,97181.28
2022-09-15T05:46:27.946Z,97177.69
2022-09-15T05:48:58.382Z,97179.19
2022-09-15T05:51:27.100Z,97182.75
2022-09-15T05:53:56.796Z,97184.56
2022-09-15T05:56:25.029Z,97179.03
2022-09-15T05:58:53.440Z,97185.69
2022-09-15T06:01:24.156Z,97181.00
2022-09-15T06:03:53.054Z,97175.09
2022-09-15T06:06:22.106Z,97179.34
2022-09-15T06:08:58.035Z,97182.63
2022-09-15T06:11:30.719Z,97180.16
2022-09-15T06:14:01.151Z,97184.25
2022-09-15T06:16:32.539Z,97179.19
2022-09-15T06:19:01.469Z,97181.00
2022-09-15T06:21:32.327Z,97181.88
2022-09-15T06:24:03.306Z,97183.22
2022-09-15T06:26:33.119Z,97191.72
2022-09-15T06:29:02.917Z,97187.31
2022-09-15T06:31:33.234Z,97196.94
2022-09-15T06:34:03.708Z,97206.63
2022-09-15T06:36:33.239Z,97210.41
2022-09-15T06:39:01.532Z,97208.09
2022-09-15T06:41:42.673Z,97212.97
2022-09-15T06:44:21.113Z,97211.38
2022-09-15T06:46:49.694Z,97215.41
2022-09-15T06:49:18.347Z,97220.38
2022-09-15T06:51:46.784Z,97224.50
2022-09-15T06:54:17.009Z,97227.41
2022-09-15T06:56:46.026Z,97242.06
2022-09-15T06:59:15.540Z,97233.59
2022-09-15T07:01:45.251Z,97236.47
2022-09-15T07:04:13.502Z,97235.94
2022-09-15T07:06:41.780Z,97234.75
2022-09-15T07:09:11.992Z,97236.03
2022-09-15T07:11:40.594Z,97231.75
2022-09-15T07:14:09.346Z,97233.97
2022-09-15T07:16:38.071Z,97233.72
2022-09-15T07:19:07.973Z,97231.81
2022-09-15T07:21:36.715Z,97233.00
2022-09-15T07:24:07.695Z,97237.56
2022-09-15T07:26:36.236Z,97236.88
2022-09-15T07:29:06.949Z,97236.22
2022-09-15T07:31:39.010Z,97234.28
2022-09-15T07:34:09.084Z,97238.66
2022-09-15T07:36:37.515Z,97241.69
2022-09-15T07:39:06.706Z,97241.13
2022-09-15T07:41:35.220Z,97239.47
2022-09-15T07:44:04.010Z,97245.50
2022-09-15T07:46:34.070Z,97235.78
2022-09-15T07:49:03.835Z,97248.13
2022-09-15T07:51:33.523Z,97247.31
2022-09-15T07:54:02.008Z,97243.88
2022-09-15T07:56:30.351Z,97244.41
2022-09-15T07:58:58.918Z,97255.66
2022-09-15T08:01:27.451Z,97254.56
2022-09-15T08:03:56.070Z,97265.97
2022-09-15T08:06:27.216Z,97261.69
2022-09-15T08:09:00.729Z,97259.78
2022-09-15T08:11:30.315Z,97267.69
2022-09-15T08:14:03.400Z,97270.13
2022-09-15T08:16:31.972Z,97274.69
2022-09-15T08:19:00.624Z,97273.56
2022-09-15T08:21:29.141Z,97279.91
2022-09-15T08:24:01.314Z,97284.16
2022-09-15T08:26:31.052Z,97291.28
2022-09-15T08:29:00.592Z,97290.47
2022-09-15T08:31:29.182Z,97292.13
2022-09-15T08:33:57.873Z,97293.75
2022-09-15T08:36:27.768Z,97292.50
2022-09-15T08:38:57.973Z,97293.16
2022-09-15T08:41:31.222Z,97294.56
2022-09-15T08:44:08.345Z,97294.41
2022-09-15T08:46:42.302Z,97298.69
2022-09-15T08:49:35.525Z,97296.47
2022-09-15T08:52:14.556Z,97303.31
2022-09-15T08:54:44.328Z,97299.75
2022-09-15T08:57:19.593Z,97307.44
2022-09-15T08:59:47.923Z,97297.66
2022-09-15T09:02:54.031Z,97305.19
2022-09-15T09:05:55.450Z,97305.72
2022-09-15T09:09:01.689Z,97301.19
2022-09-15T09:11:48.301Z,97305.97
2022-09-15T09:14:26.794Z,97308.13
2022-09-15T09:17:15.262Z,97311.56
2022-09-15T09:20:11.009Z,97315.53
2022-09-15T09:22:42.793Z,97320.28
2022-09-15T09:25:26.647Z,97327.00
2022-09-15T09:27:58.066Z,97322.78
2022-09-15T09:30:28.954Z,97323.97
2022-09-15T09:33:13.719Z,97325.91
2022-09-15T09:35:46.315Z,97324.25
2022-09-15T09:38:21.676Z,97325.91
2022-09-15T09:40:52.007Z,97325.22
2022-09-15T09:43:21.921Z,97329.09
2022-09-15T09:45:50.496Z,97323.34
2022-09-15T09:48:22.889Z,97329.81
2022-09-15T09:50:51.588Z,97325.75
2022-09-15T09:53:31.999Z,97327.13
2022-09-15T09:56:24.277Z,97323.31
2022-09-15T09:58:54.577Z,97322.09
2022-09-15T10:01:26.281Z,97320.03
2022-09-15T10:04:14.262Z,97325.25
2022-09-15T10:06:42.673Z,97325.16
2022-09-15T10:09:16.295Z,97321.84
2022-09-15T10:11:47.981Z,97322.28
2022-09-15T10:14:22.970Z,97322.81
2022-09-15T10:17:04.310Z,97317.06
2022-09-15T10:19:37.579Z,97315.72
2022-09-15T10:22:06.427Z,97326.97
2022-09-15T10:24:37.974Z,97333.44
2022-09-15T10:27:19.108Z,97334.03
2022-09-15T10:29:49.140Z,97332.66
2022-09-15T10:32:26.694Z,97345.41
2022-09-15T10:35:11.183Z,97343.78
2022-09-15T10:37:59.120Z,97352.28
2022-09-15T10:40:45.132Z,97360.00
2022-09-15T10:43:38.585Z,97370.16
2022-09-15T10:46:14.804Z,97363.44
2022-09-15T10:48:57.554Z,97367.28
2022-09-15T10:51:46.477Z,97375.66
2022-09-15T10:54:48.647Z,97378.66
2022-09-15T10:57:32.211Z,97382.66
2022-09-15T11:00:07.448Z,97375.13
2022-09-15T11:03:06.988Z,97384.84
2022-09-15T11:05:49.697Z,97391.00
2022-09-15T11:08:47.341Z,97391.84
2022-09-15T11:11:26.193Z,97382.41
2022-09-15T11:14:08.061Z,97393.34
2022-09-15T11:16:51.629Z,97391.81
2022-09-15T11:19:53.625Z,97396.22
2022-09-15T11:22:26.622Z,97398.69
2022-09-15T11:25:01.187Z,97408.56
2022-09-15T11:27:35.551Z,97408.56
2022-09-15T11:30:08.197Z,97409.66
2022-09-15T11:32:45.280Z,97402.78
2022-09-15T11:35:35.928Z,97404.47
2022-09-15T11:38:23.655Z,97416.78
2022-09-15T11:40:59.721Z,97429.13
2022-09-15T11:43:35.505Z,97433.88
2022-09-15T11:46:12.277Z,97434.31
2022-09-15T11:48:45.967Z,97439.78
2022-09-15T11:51:20.130Z,97439.91
2022-09-15T11:53:55.108Z,97444.16
2022-09-15T11:56:30.567Z,97449.91
2022-09-15T11:59:07.693Z,97447.31
2022-09-15T12:01:42.975Z,97455.94
2022-09-15T12:04:17.318Z,97448.69
2022-09-15T12:06:52.437Z,97444.72
2022-09-15T12:09:22.330Z,97464.47
2022-09-15T12:11:54.436Z,97476.09
2022-09-15T12:14:30.090Z,97478.13
2022-09-15T12:16:59.331Z,97479.53
2022-09-15T12:19:49.983Z,97486.50
2022-09-15T12:22:28.094Z,97488.56
2022-09-15T12:25:03.611Z,97483.09
2022-09-15T12:27:32.268Z,97470.22
2022-09-15T12:30:01.749Z,97479.00
2022-09-15T12:32:32.465Z,97487.66
2022-09-15T12:35:13.578Z,97483.13
2022-09-15T12:37:47.855Z,97493.28
2022-09-15T12:40:36.470Z,97489.31
2022-09-15T12:43:18.415Z,97496.00
2022-09-15T12:45:58.339Z,97510.53
2022-09-15T12:48:30.284Z,97507.13
2022-09-15T12:51:02.187Z,97512.19
2022-09-15T12:56:07.009Z,97505.75
2022-09-15T12:58:39.164Z,97510.94
2022-09-15T13:01:34.708Z,97503.56
2022-09-15T13:04:52.517Z,97514.66
2022-09-15T13:07:56.233Z,97511.66
2022-09-15T13:10:34.731Z,97504.41
2022-09-15T13:13:24.133Z,97509.47
2022-09-15T13:15:54.733Z,97514.41
2022-09-15T13:18:25.040Z,97517.97
2022-09-15T13:21:03.435Z,97519.63
2022-09-15T13:23:39.339Z,97514.44
2022-09-15T13:26:16.639Z,97518.00
2022-09-15T13:28:45.462Z,97512.22
2022-09-15T13:31:29.703Z,97518.41
2022-09-15T13:38:20.245Z,97523.50
2022-09-15T13:41:26.136Z,97518.53
2022-09-15T13:44:35.205Z,97506.28
2022-09-15T13:47:27.574Z,97507.75
2022-09-15T13:50:07.286Z,97502.75
2022-09-15T13:53:16.529Z,97513.03
2022-09-15T13:55:46.481Z,97503.84
2022-09-15T14:01:11.438Z,97504.91
2022-09-15T14:03:46.395Z,97499.69
2022-09-15T14:06:19.026Z,97506.56
2022-09-15T14:08:51.617Z,97509.97
2022-09-15T14:11:27.859Z,97508.09
2022-09-15T14:14:00.449Z,97508.25
2022-09-15T14:16:35.453Z,97504.38
2022-09-15T14:19:30.412Z,97508.22
2022-09-15T14:21:59.188Z,97496.59
2022-09-15T14:24:30.083Z,97504.03
2022-09-15T14:27:03.467Z,97503.53
2022-09-15T14:29:33.481Z,97509.94
2022-09-15T14:32:03.998Z,97499.38
2022-09-15T14:34:37.124Z,97494.97
2022-09-15T14:37:08.823Z,97497.03
2022-09-15T14:39:40.208Z,97494.44
2022-09-15T14:42:21.711Z,97484.06
2022-09-15T14:47:43.250Z,97495.34
2022-09-15T14:50:16.628Z,97503.09
2022-09-15T14:52:49.137Z,97502.59
2022-09-15T14:55:23.773Z,97501.97
2022-09-15T14:57:55.693Z,97502.69
2022-09-15T15:00:30.762Z,97510.50
2022-09-15T15:03:17.536Z,97508.72
2022-09-15T15:05:58.059Z,97507.50
2022-09-15T15:08:38.068Z,97509.50
2022-09-15T15:11:08.331Z,97502.28
2022-09-15T15:13:39.752Z,97506.13
2022-09-15T15:16:17.236Z,97511.38
2022-09-15T15:18:45.682Z,97515.31
2022-09-15T15:21:35.768Z,97514.69
2022-09-15T15:24:15.965Z,97511.63
2022-09-15T15:26:49.038Z,97523.91
2022-09-15T15:29:43.021Z,97519.38
2022-09-15T15:32:15.489Z,97516.94
2022-09-15T15:34:50.948Z,97521.38
2022-09-15T15:37:28.421Z,97522.50
2022-09-15T15:39:57.829Z,97524.94
2022-09-15T15:42:28.442Z,97528.97
2022-09-15T15:45:03.808Z,97521.34
2022-09-15T15:47:37.186Z,97517.31
2022-09-15T15:50:14.294Z,97520.47
2022-09-15T15:52:43.869Z,97525.06
2022-09-15T15:55:15.658Z,97525.88
2022-09-15T15:57:44.414Z,97516.19
2022-09-15T16:00:21.723Z,97528.00
2022-09-15T16:02:53.109Z,97516.59
2022-09-15T16:05:23.134Z,97518.25
2022-09-15T16:07:53.447Z,97513.19
2022-09-15T16:10:24.923Z,97518.91
2022-09-15T16:12:53.188Z,97518.75
2022-09-15T16:15:22.756Z,97515.94
2022-09-15T16:17:52.622Z,97522.00
2022-09-15T16:20:21.486Z,97518.53
2022-09-15T16:22:49.824Z,97514.91
2022-09-15T16:25:23.999Z,97524.69
2022-09-15T16:27:52.471Z,97525.38
2022-09-15T16:30:21.678Z,97533.84
2022-09-15T16:32:50.117Z,97530.00
2022-09-15T16:35:36.361Z,97532.50
2022-09-15T16:38:04.835Z,97534.09
2022-09-15T16:40:33.271Z,97529.72
2022-09-15T16:43:02.203Z,97532.97
2022-09-15T16:45:38.007Z,97537.06
2022-09-15T16:48:09.132Z,97539.16
2022-09-15T16:50:40.170Z,97531.75
2022-09-15T16:53:15.724Z,97544.53
2022-09-15T16:55:46.688Z,97540.81
2022-09-15T16:58:16.940Z,97542.25
2022-09-15T17:00:48.223Z,97550.91
2022-09-15T17:03:19.680Z,97545.38
2022-09-15T17:05:51.385Z,97549.22
2022-09-15T17:08:21.855Z,97554.13
2022-09-15T17:10:50.650Z,97556.91
2022-09-15T17:13:25.210Z,97556.91
2022-09-15T17:15:56.578Z,97561.63
2022-09-15T17:18:25.890Z,97562.72
2022-09-15T17:20:55.604Z,97564.00
2022-09-15T17:23:27.707Z,97565.47
2022-09-15T17:25:59.013Z,97562.16
2022-09-15T17:28:29.219Z,97569.34
2022-09-15T17:31:00.365Z,97567.22
2022-09-15T17:33:30.984Z,97576.53
2022-09-15T17:36:01.448Z,97567.56
2022-09-15T17:38:29.760Z,97569.66
2022-09-15T17:40:58.742Z,97568.63
2022-09-15T17:43:29.438Z,97568.13
2022-09-15T17:45:58.118Z,97564.84
2022-09-15T17:48:26.825Z,97565.16
2022-09-15T17:50:55.093Z,97561.88
2022-09-15T17:53:27.168Z,97569.22
2022-09-15T17:55:57.113Z,97571.31
2022-09-15T17:58:26.755Z,97569.13
2022-09-15T18:00:55.589Z,97568.97
2022-09-15T18:03:27.822Z,97565.56
2022-09-15T18:05:58.308Z,97572.59
2022-09-15T18:08:28.847Z,97570.91
2022-09-15T18:10:57.380Z,97578.13
2022-09-15T18:13:28.202Z,97577.06
2022-09-15T18:15:57.005Z,97588.28
2022-09-15T18:18:28.255Z,97578.94
2022-09-15T18:20:57.892Z,97589.94
2022-09-15T18:23:29.782Z,97582.53
2022-09-15T18:25:58.485Z,97584.09
2022-09-15T18:28:27.895Z,97583.75
2022-09-15T18:30:57.179Z,97586.53
2022-09-15T18:33:27.280Z,97594.50
2022-09-15T18:35:58.794Z,97594.56
2022-09-15T18:38:28.738Z,97600.88
2022-09-15T18:40:58.405Z,97602.44
2022-09-15T18:43:28.728Z,97601.88
2022-09-15T18:46:00.063Z,97597.50
2022-09-15T18:48:28.742Z,97609.50
2022-09-15T18:50:57.020Z,97607.88
2022-09-15T18:53:26.289Z,97608.03
2022-09-15T18:55:56.120Z,97606.25
2022-09-15T18:58:24.380Z,97608.16
2022-09-15T19:00:52.840Z,97608.16
2022-09-15T19:03:21.092Z,97607.66
2022-09-15T19:05:50.525Z,97612.66
2022-09-15T19:08:18.981Z,97616.38
2022-09-15T19:10:47.860Z,97609.78
2022-09-15T19:13:17.706Z,97605.00
2022-09-15T19:15:48.194Z,97606.91
2022-09-15T19:18:18.763Z,97605.28
2022-09-15T19:20:47.086Z,97613.81
2022-09-15T19:23:15.998Z,97615.44
2022-09-15T19:25:44.331Z,97618.06
2022-09-15T19:28:12.607Z,97626.19
2022-09-15T19:30:42.606Z,97623.84
2022-09-15T19:33:11.063Z,97623.19
2022-09-15T19:35:42.947Z,97623.63
2022-09-15T19:38:11.370Z,97623.22
2022-09-15T19:40:39.648Z,97624.34
2022-09-15T19:43:07.988Z,97625.28
2022-09-15T19:45:36.466Z,97615.00
2022-09-15T19:48:06.244Z,97623.00
2022-09-15T19:50:34.552Z,97623.94
2022-09-15T19:53:02.828Z,97635.25
2022-09-15T19:55:31.312Z,97626.72
2022-09-15T19:57:59.707Z,97634.88
2022-09-15T20:00:28.249Z,97640.09
2022-09-15T20:02:56.616Z,97640.38
2022-09-15T20:05:26.662Z,97637.06
2022-09-15T20:07:54.947Z,97641.72
2022-09-15T20:10:23.209Z,97634.59
2022-09-15T20:12:52.599Z,97633.91
2022-09-15T20:15:21.243Z,97638.91
2022-09-15T20:17:49.546Z,97645.34
2022-09-15T20:20:17.945Z,97643.03
2022-09-15T20:22:47.805Z,97642.31
2022-09-15T20:25:16.143Z,97650.16
2022-09-15T20:27:44.735Z,97645.09
2022-09-15T20:30:14.272Z,97649.47
2022-09-15T20:32:42.644Z,97648.13
2022-09-15T20:35:10.881Z,97643.44
2022-09-15T20:37:39.527Z,97644.94
2022-09-15T20:40:10.247Z,97646.19
2022-09-15T20:42:39.061Z,97651.66
2022-09-15T20:45:09.380Z,97651.97
2022-09-15T20:47:37.581Z,97648.66
2022-09-15T20:50:06.914Z,97640.44
2022-09-15T20:52:38.430Z,97658.00
2022-09-15T20:55:09.683Z,97642.09
2022-09-15T20:57:37.914Z,97640.81
2022-09-15T21:00:09.169Z,97650.41
2022-09-15T21:02:37.817Z,97649.00
2022-09-15T21:05:06.640Z,97645.03
2022-09-15T21:07:34.938Z,97643.91
2022-09-15T21:10:03.233Z,97643.38
2022-09-15T21:12:33.905Z,97649.66
2022-09-15T21:15:03.714Z,97655.97
2022-09-15T21:17:32.170Z,97652.78
2022-09-15T21:20:00.424Z,97653.19
2022-09-15T21:22:28.645Z,97649.06
2022-09-15T21:24:56.917Z,97657.56
2022-09-15T21:27:28.887Z,97656.56
2022-09-15T21:29:59.091Z,97656.09
2022-09-15T21:32:27.459Z,97657.97
2022-09-15T21:34:55.916Z,97657.69
2022-09-15T21:37:26.869Z,97665.03
2022-09-15T21:39:55.870Z,97669.50
2022-09-15T21:42:24.990Z,97670.69
2022-09-15T21:44:54.372Z,97674.50
2022-09-15T21:47:24.783Z,97674.53
2022-09-15T21:49:53.126Z,97680.38
2022-09-15T21:52:21.406Z,97676.13
2022-09-15T21:54:49.693Z,97674.59
2022-09-15T21:57:17.939Z,97672.63
2022-09-15T21:59:46.585Z,97676.31
2022-09-15T22:02:15.474Z,97665.44
2022-09-15T22:04:45.454Z,97671.84
2022-09-15T22:07:15.257Z,97671.16
2022-09-15T22:09:43.552Z,97670.34
2022-09-15T22:12:11.943Z,97667.84
2022-09-15T22:14:40.214Z,97674.00
2022-09-15T22:17:08.579Z,97673.19
2022-09-15T22:19:37.250Z,97675.44
2022-09-15T22:22:07.835Z,97673.09
2022-09-15T22:24:36.130Z,97679.38
2022-09-15T22:27:04.518Z,97677.03
2022-09-15T22:29:32.756Z,97670.91
2022-09-15T22:32:01.085Z,97679.44
2022-09-15T22:34:29.593Z,97678.03
2022-09-15T22:36:57.965Z,97679.09
2022-09-15T22:39:50.309Z,97672.47
2022-09-15T22:42:16.172Z,97686.66
2022-09-15T22:44:44.463Z,97678.06
2022-09-15T22:47:13.086Z,97666.84
2022-09-15T22:49:41.563Z,97672.13
2022-09-15T22:52:10.172Z,97664.47
2022-09-15T22:54:40.006Z,97666.38
2022-09-15T22:57:08.382Z,97663.88
2022-09-15T22:59:36.612Z,97672.50
2022-09-15T23:02:05.019Z,97671.44
2022-09-15T23:04:33.320Z,97671.34
2022-09-15T23:07:01.587Z,97675.72
2022-09-15T23:09:29.987Z,97684.31
2022-09-15T23:11:59.566Z,97679.13
2022-09-15T23:14:28.069Z,97682.44
2022-09-15T23:16:56.310Z,97681.97
2022-09-15T23:19:24.509Z,97683.25
2022-09-15T23:21:52.939Z,97681.47
2022-09-15T23:24:21.507Z,97674.38
2022-09-15T23:26:49.742Z,97677.00
2022-09-15T23:29:19.404Z,97677.44
2022-09-15T23:31:47.801Z,97680.03
2022-09-15T23:34:16.295Z,97676.47
2022-09-15T23:36:44.574Z,97677.19
2022-09-15T23:39:12.950Z,97675.41
2022-09-15T23:41:41.282Z,97680.63
2022-09-15T23:44:09.929Z,97682.50
2022-09-15T23:46:39.605Z,97688.53
2022-09-15T23:49:08.001Z,97678.13
2022-09-15T23:51:36.270Z,97683.22
2022-09-15T23:54:04.894Z,97677.44
2022-09-15T23:56:33.836Z,97678.50
2022-09-15T23:59:02.218Z,97675.31
